sensor_id;sensor_type;location;lat;lon;timestamp;P1;durP1;ratioP1;P2;durP2;ratioP2
22230;SDS011;11284;48.086;-1.652;2023-10-09T00:01:49;11.32;;;5.75;;
22230;SDS011;11284;48.086;-1.652;2023-10-09T00:04:16;11.20;;;5.43;;
22230;SDS011;11284;48.086;-1.652;2023-10-09T00:06:42;11.70;;;5.60;;
22230;SDS011;11284;48.086;-1.652;2023-10-09T00:09:08;9.93;;;5.47;;
22230;SDS011;11284;48.086;-1.652;2023-10-09T00:11:44;9.30;;;5.68;;
22230;SDS011;11284;48.086;-1.652;2023-10-09T00:14:13;11.93;;;6.03;;
22230;SDS011;11284;48.086;-1.652;2023-10-09T00:16:40;10.18;;;5.65;;
22230;SDS011;11284;48.086;-1.652;2023-10-09T00:19:21;11.65;;;6.18;;
22230;SDS011;11284;48.086;-1.652;2023-10-09T00:21:56;10.52;;;5.63;;
22230;SDS011;11284;48.086;-1.652;2023-10-09T00:24:26;11.73;;;5.70;;
22230;SDS011;11284;48.086;-1.652;2023-10-09T00:26:53;10.27;;;5.65;;
22230;SDS011;11284;48.086;-1.652;2023-10-09T00:29:39;10.13;;;5.40;;
22230;SDS011;11284;48.086;-1.652;2023-10-09T00:32:12;9.77;;;5.63;;
22230;SDS011;11284;48.086;-1.652;2023-10-09T00:34:42;11.60;;;5.53;;
22230;SDS011;11284;48.086;-1.652;2023-10-09T00:37:08;10.90;;;5.93;;
22230;SDS011;11284;48.086;-1.652;2023-10-09T00:39:44;10.73;;;5.60;;
22230;SDS011;11284;48.086;-1.652;2023-10-09T00:42:12;12.25;;;5.78;;
22230;SDS011;11284;48.086;-1.652;2023-10-09T00:44:40;11.48;;;5.95;;
22230;SDS011;11284;48.086;-1.652;2023-10-09T00:47:07;10.15;;;5.45;;
22230;SDS011;11284;48.086;-1.652;2023-10-09T00:50:04;11.13;;;5.80;;
22230;SDS011;11284;48.086;-1.652;2023-10-09T00:52:40;12.27;;;5.38;;
22230;SDS011;11284;48.086;-1.652;2023-10-09T00:55:14;10.13;;;6.13;;
22230;SDS011;11284;48.086;-1.652;2023-10-09T00:57:46;10.32;;;5.97;;
22230;SDS011;11284;48.086;-1.652;2023-10-09T01:00:21;11.38;;;6.00;;
22230;SDS011;11284;48.086;-1.652;2023-10-09T01:03:01;9.73;;;5.28;;
22230;SDS011;11284;48.086;-1.652;2023-10-09T01:06:01;9.50;;;5.40;;
22230;SDS011;11284;48.086;-1.652;2023-10-09T01:08:34;8.38;;;4.80;;
22230;SDS011;11284;48.086;-1.652;2023-10-09T01:11:06;9.93;;;5.30;;
22230;SDS011;11284;48.086;-1.652;2023-10-09T01:13:39;8.95;;;5.70;;
22230;SDS011;11284;48.086;-1.652;2023-10-09T01:16:11;9.95;;;5.80;;
22230;SDS011;11284;48.086;-1.652;2023-10-09T01:18:41;8.98;;;4.82;;
22230;SDS011;11284;48.086;-1.652;2023-10-09T01:21:07;9.05;;;5.63;;
22230;SDS011;11284;48.086;-1.652;2023-10-09T01:23:37;8.70;;;5.60;;
22230;SDS011;11284;48.086;-1.652;2023-10-09T01:26:08;10.32;;;5.68;;
22230;SDS011;11284;48.086;-1.652;2023-10-09T01:28:34;9.25;;;5.53;;
22230;SDS011;11284;48.086;-1.652;2023-10-09T01:31:00;12.00;;;6.65;;
22230;SDS011;11284;48.086;-1.652;2023-10-09T01:33:26;11.82;;;6.25;;
22230;SDS011;11284;48.086;-1.652;2023-10-09T01:35:53;11.50;;;6.22;;
22230;SDS011;11284;48.086;-1.652;2023-10-09T01:38:25;10.35;;;5.97;;
22230;SDS011;11284;48.086;-1.652;2023-10-09T01:41:15;12.05;;;6.32;;
22230;SDS011;11284;48.086;-1.652;2023-10-09T01:43:44;10.25;;;5.90;;
22230;SDS011;11284;48.086;-1.652;2023-10-09T01:46:11;12.40;;;6.20;;
22230;SDS011;11284;48.086;-1.652;2023-10-09T01:48:37;8.95;;;5.80;;
22230;SDS011;11284;48.086;-1.652;2023-10-09T01:51:13;11.53;;;5.90;;
22230;SDS011;11284;48.086;-1.652;2023-10-09T01:53:42;10.97;;;5.40;;
22230;SDS011;11284;48.086;-1.652;2023-10-09T01:56:09;9.85;;;6.30;;
22230;SDS011;11284;48.086;-1.652;2023-10-09T01:58:40;9.27;;;5.45;;
22230;SDS011;11284;48.086;-1.652;2023-10-09T02:01:06;9.80;;;5.35;;
22230;SDS011;11284;48.086;-1.652;2023-10-09T02:03:32;8.00;;;5.43;;
22230;SDS011;11284;48.086;-1.652;2023-10-09T02:06:02;8.45;;;4.85;;
22230;SDS011;11284;48.086;-1.652;2023-10-09T02:08:29;9.82;;;5.15;;
22230;SDS011;11284;48.086;-1.652;2023-10-09T02:11:00;7.72;;;4.93;;
22230;SDS011;11284;48.086;-1.652;2023-10-09T02:13:28;10.65;;;5.20;;
22230;SDS011;11284;48.086;-1.652;2023-10-09T02:16:00;10.32;;;5.70;;
22230;SDS011;11284;48.086;-1.652;2023-10-09T02:18:39;9.27;;;5.40;;
22230;SDS011;11284;48.086;-1.652;2023-10-09T02:21:17;7.78;;;4.75;;
22230;SDS011;11284;48.086;-1.652;2023-10-09T02:23:53;8.63;;;4.78;;
22230;SDS011;11284;48.086;-1.652;2023-10-09T02:26:22;9.82;;;5.15;;
22230;SDS011;11284;48.086;-1.652;2023-10-09T02:28:57;11.70;;;5.53;;
22230;SDS011;11284;48.086;-1.652;2023-10-09T02:31:49;9.95;;;4.70;;
22230;SDS011;11284;48.086;-1.652;2023-10-09T02:34:25;9.45;;;5.32;;
22230;SDS011;11284;48.086;-1.652;2023-10-09T02:36:53;7.90;;;4.88;;
22230;SDS011;11284;48.086;-1.652;2023-10-09T02:39:31;9.00;;;4.80;;
22230;SDS011;11284;48.086;-1.652;2023-10-09T02:42:08;8.02;;;4.80;;
22230;SDS011;11284;48.086;-1.652;2023-10-09T02:44:37;9.38;;;5.47;;
22230;SDS011;11284;48.086;-1.652;2023-10-09T02:47:13;9.32;;;4.93;;
22230;SDS011;11284;48.086;-1.652;2023-10-09T02:49:49;10.65;;;5.25;;
22230;SDS011;11284;48.086;-1.652;2023-10-09T02:52:15;8.57;;;4.88;;
22230;SDS011;11284;48.086;-1.652;2023-10-09T02:54:49;9.82;;;5.53;;
22230;SDS011;11284;48.086;-1.652;2023-10-09T02:57:24;7.80;;;5.00;;
22230;SDS011;11284;48.086;-1.652;2023-10-09T02:59:53;8.20;;;5.15;;
22230;SDS011;11284;48.086;-1.652;2023-10-09T03:02:19;7.75;;;4.70;;
22230;SDS011;11284;48.086;-1.652;2023-10-09T03:04:45;9.55;;;5.55;;
22230;SDS011;11284;48.086;-1.652;2023-10-09T03:07:11;8.40;;;5.30;;
22230;SDS011;11284;48.086;-1.652;2023-10-09T03:09:41;8.65;;;5.03;;
22230;SDS011;11284;48.086;-1.652;2023-10-09T03:12:07;8.52;;;4.70;;
22230;SDS011;11284;48.086;-1.652;2023-10-09T03:14:38;9.05;;;5.18;;
22230;SDS011;11284;48.086;-1.652;2023-10-09T03:17:04;9.07;;;5.03;;
22230;SDS011;11284;48.086;-1.652;2023-10-09T03:19:32;8.40;;;5.15;;
22230;SDS011;11284;48.086;-1.652;2023-10-09T03:22:02;9.75;;;4.65;;
22230;SDS011;11284;48.086;-1.652;2023-10-09T03:24:28;8.90;;;4.95;;
22230;SDS011;11284;48.086;-1.652;2023-10-09T03:26:57;7.50;;;4.43;;
22230;SDS011;11284;48.086;-1.652;2023-10-09T03:29:24;7.25;;;4.32;;
22230;SDS011;11284;48.086;-1.652;2023-10-09T03:31:50;7.40;;;4.97;;
22230;SDS011;11284;48.086;-1.652;2023-10-09T03:34:16;9.50;;;5.53;;
22230;SDS011;11284;48.086;-1.652;2023-10-09T03:36:43;8.07;;;5.03;;
22230;SDS011;11284;48.086;-1.652;2023-10-09T03:39:09;9.90;;;5.05;;
22230;SDS011;11284;48.086;-1.652;2023-10-09T03:41:55;8.82;;;5.60;;
22230;SDS011;11284;48.086;-1.652;2023-10-09T03:44:23;9.50;;;5.13;;
22230;SDS011;11284;48.086;-1.652;2023-10-09T03:46:53;8.40;;;4.90;;
22230;SDS011;11284;48.086;-1.652;2023-10-09T03:49:19;9.20;;;5.78;;
22230;SDS011;11284;48.086;-1.652;2023-10-09T03:51:49;9.48;;;5.40;;
22230;SDS011;11284;48.086;-1.652;2023-10-09T03:54:15;10.35;;;4.95;;
22230;SDS011;11284;48.086;-1.652;2023-10-09T03:56:45;7.57;;;4.85;;
22230;SDS011;11284;48.086;-1.652;2023-10-09T03:59:12;8.07;;;4.70;;
22230;SDS011;11284;48.086;-1.652;2023-10-09T04:01:41;7.43;;;4.60;;
22230;SDS011;11284;48.086;-1.652;2023-10-09T04:04:09;8.57;;;4.85;;
22230;SDS011;11284;48.086;-1.652;2023-10-09T04:06:38;9.00;;;4.75;;
22230;SDS011;11284;48.086;-1.652;2023-10-09T04:09:08;7.40;;;4.43;;
22230;SDS011;11284;48.086;-1.652;2023-10-09T04:11:44;7.82;;;4.68;;
22230;SDS011;11284;48.086;-1.652;2023-10-09T04:14:11;9.00;;;4.75;;
22230;SDS011;11284;48.086;-1.652;2023-10-09T04:16:49;8.30;;;4.88;;
22230;SDS011;11284;48.086;-1.652;2023-10-09T04:19:28;8.13;;;4.78;;
22230;SDS011;11284;48.086;-1.652;2023-10-09T04:21:54;7.72;;;4.13;;
22230;SDS011;11284;48.086;-1.652;2023-10-09T04:24:23;8.90;;;4.75;;
22230;SDS011;11284;48.086;-1.652;2023-10-09T04:26:49;6.88;;;4.35;;
22230;SDS011;11284;48.086;-1.652;2023-10-09T04:29:22;8.43;;;4.85;;
22230;SDS011;11284;48.086;-1.652;2023-10-09T04:31:54;7.68;;;4.60;;
22230;SDS011;11284;48.086;-1.652;2023-10-09T04:34:24;9.73;;;4.72;;
22230;SDS011;11284;48.086;-1.652;2023-10-09T04:36:53;7.90;;;4.45;;
22230;SDS011;11284;48.086;-1.652;2023-10-09T04:39:26;8.17;;;5.20;;
22230;SDS011;11284;48.086;-1.652;2023-10-09T04:41:55;10.07;;;5.18;;
22230;SDS011;11284;48.086;-1.652;2023-10-09T04:44:44;9.68;;;4.88;;
22230;SDS011;11284;48.086;-1.652;2023-10-09T04:47:28;9.68;;;5.20;;
22230;SDS011;11284;48.086;-1.652;2023-10-09T04:50:01;7.65;;;4.88;;
22230;SDS011;11284;48.086;-1.652;2023-10-09T04:52:31;7.45;;;5.00;;
22230;SDS011;11284;48.086;-1.652;2023-10-09T04:54:57;7.85;;;4.70;;
22230;SDS011;11284;48.086;-1.652;2023-10-09T04:57:36;8.93;;;4.75;;
22230;SDS011;11284;48.086;-1.652;2023-10-09T05:00:09;10.18;;;4.43;;
22230;SDS011;11284;48.086;-1.652;2023-10-09T05:02:51;7.13;;;4.88;;
22230;SDS011;11284;48.086;-1.652;2023-10-09T05:05:20;8.10;;;4.70;;
22230;SDS011;11284;48.086;-1.652;2023-10-09T05:08:04;8.40;;;5.32;;
22230;SDS011;11284;48.086;-1.652;2023-10-09T05:11:00;7.82;;;5.25;;
22230;SDS011;11284;48.086;-1.652;2023-10-09T05:13:33;7.68;;;5.15;;
22230;SDS011;11284;48.086;-1.652;2023-10-09T05:16:05;9.18;;;5.20;;
22230;SDS011;11284;48.086;-1.652;2023-10-09T05:18:41;8.93;;;5.13;;
22230;SDS011;11284;48.086;-1.652;2023-10-09T05:21:10;9.18;;;5.35;;
22230;SDS011;11284;48.086;-1.652;2023-10-09T05:23:41;8.43;;;5.30;;
22230;SDS011;11284;48.086;-1.652;2023-10-09T05:26:17;8.25;;;5.57;;
22230;SDS011;11284;48.086;-1.652;2023-10-09T05:29:30;10.70;;;5.15;;
22230;SDS011;11284;48.086;-1.652;2023-10-09T05:31:59;8.65;;;5.07;;
22230;SDS011;11284;48.086;-1.652;2023-10-09T05:34:25;10.38;;;5.50;;
22230;SDS011;11284;48.086;-1.652;2023-10-09T05:37:21;8.27;;;4.82;;
22230;SDS011;11284;48.086;-1.652;2023-10-09T05:39:58;10.93;;;5.43;;
22230;SDS011;11284;48.086;-1.652;2023-10-09T05:42:30;11.93;;;5.40;;
22230;SDS011;11284;48.086;-1.652;2023-10-09T05:45:06;10.43;;;5.72;;
22230;SDS011;11284;48.086;-1.652;2023-10-09T05:47:42;11.85;;;5.75;;
22230;SDS011;11284;48.086;-1.652;2023-10-09T05:50:27;10.80;;;5.30;;
22230;SDS011;11284;48.086;-1.652;2023-10-09T05:52:54;14.55;;;6.43;;
22230;SDS011;11284;48.086;-1.652;2023-10-09T05:55:20;9.02;;;5.35;;
22230;SDS011;11284;48.086;-1.652;2023-10-09T05:57:55;7.88;;;5.13;;
22230;SDS011;11284;48.086;-1.652;2023-10-09T06:00:34;9.90;;;5.72;;
22230;SDS011;11284;48.086;-1.652;2023-10-09T06:03:19;9.93;;;5.20;;
22230;SDS011;11284;48.086;-1.652;2023-10-09T06:05:48;9.15;;;5.30;;
22230;SDS011;11284;48.086;-1.652;2023-10-09T06:08:21;8.55;;;5.30;;
22230;SDS011;11284;48.086;-1.652;2023-10-09T06:11:06;8.68;;;5.28;;
22230;SDS011;11284;48.086;-1.652;2023-10-09T06:13:51;11.27;;;6.05;;
22230;SDS011;11284;48.086;-1.652;2023-10-09T06:16:29;9.57;;;5.55;;
22230;SDS011;11284;48.086;-1.652;2023-10-09T06:19:04;10.75;;;5.65;;
22230;SDS011;11284;48.086;-1.652;2023-10-09T06:21:36;10.13;;;5.65;;
22230;SDS011;11284;48.086;-1.652;2023-10-09T06:24:24;10.35;;;5.70;;
22230;SDS011;11284;48.086;-1.652;2023-10-09T06:27:17;10.90;;;5.82;;
22230;SDS011;11284;48.086;-1.652;2023-10-09T06:29:54;10.43;;;5.63;;
22230;SDS011;11284;48.086;-1.652;2023-10-09T06:32:43;10.38;;;5.68;;
22230;SDS011;11284;48.086;-1.652;2023-10-09T06:35:21;9.82;;;5.70;;
22230;SDS011;11284;48.086;-1.652;2023-10-09T06:37:47;11.27;;;5.82;;
22230;SDS011;11284;48.086;-1.652;2023-10-09T06:40:26;10.60;;;6.20;;
22230;SDS011;11284;48.086;-1.652;2023-10-09T06:43:15;12.27;;;6.60;;
22230;SDS011;11284;48.086;-1.652;2023-10-09T06:45:51;15.80;;;6.20;;
22230;SDS011;11284;48.086;-1.652;2023-10-09T06:48:26;14.57;;;6.40;;
22230;SDS011;11284;48.086;-1.652;2023-10-09T06:51:11;15.80;;;6.78;;
22230;SDS011;11284;48.086;-1.652;2023-10-09T06:53:59;12.88;;;6.10;;
22230;SDS011;11284;48.086;-1.652;2023-10-09T06:56:31;12.63;;;5.88;;
22230;SDS011;11284;48.086;-1.652;2023-10-09T06:58:57;12.45;;;6.50;;
22230;SDS011;11284;48.086;-1.652;2023-10-09T07:01:24;14.77;;;6.57;;
22230;SDS011;11284;48.086;-1.652;2023-10-09T07:04:01;11.88;;;6.45;;
22230;SDS011;11284;48.086;-1.652;2023-10-09T07:06:46;14.13;;;6.53;;
22230;SDS011;11284;48.086;-1.652;2023-10-09T07:09:12;14.45;;;6.80;;
22230;SDS011;11284;48.086;-1.652;2023-10-09T07:11:39;16.25;;;6.88;;
22230;SDS011;11284;48.086;-1.652;2023-10-09T07:14:05;21.48;;;7.93;;
22230;SDS011;11284;48.086;-1.652;2023-10-09T07:16:34;16.67;;;7.30;;
22230;SDS011;11284;48.086;-1.652;2023-10-09T07:19:06;17.33;;;7.22;;
22230;SDS011;11284;48.086;-1.652;2023-10-09T07:21:38;14.45;;;6.78;;
22230;SDS011;11284;48.086;-1.652;2023-10-09T07:24:04;14.25;;;7.03;;
22230;SDS011;11284;48.086;-1.652;2023-10-09T07:26:42;13.35;;;6.90;;
22230;SDS011;11284;48.086;-1.652;2023-10-09T07:29:18;16.73;;;7.60;;
22230;SDS011;11284;48.086;-1.652;2023-10-09T07:31:47;15.07;;;6.85;;
22230;SDS011;11284;48.086;-1.652;2023-10-09T07:34:22;13.98;;;6.68;;
22230;SDS011;11284;48.086;-1.652;2023-10-09T07:37:17;12.75;;;6.13;;
22230;SDS011;11284;48.086;-1.652;2023-10-09T07:39:44;12.85;;;6.70;;
22230;SDS011;11284;48.086;-1.652;2023-10-09T07:42:21;13.68;;;7.15;;
22230;SDS011;11284;48.086;-1.652;2023-10-09T07:45:11;13.63;;;6.80;;
22230;SDS011;11284;48.086;-1.652;2023-10-09T07:47:43;16.02;;;8.50;;
22230;SDS011;11284;48.086;-1.652;2023-10-09T07:50:24;15.07;;;7.85;;
22230;SDS011;11284;48.086;-1.652;2023-10-09T07:53:03;15.95;;;7.13;;
22230;SDS011;11284;48.086;-1.652;2023-10-09T07:55:54;16.02;;;7.07;;
22230;SDS011;11284;48.086;-1.652;2023-10-09T07:58:31;12.98;;;6.80;;
22230;SDS011;11284;48.086;-1.652;2023-10-09T08:00:58;10.48;;;6.65;;
22230;SDS011;11284;48.086;-1.652;2023-10-09T08:03:40;16.13;;;6.63;;
22230;SDS011;11284;48.086;-1.652;2023-10-09T08:06:10;10.77;;;7.03;;
22230;SDS011;11284;48.086;-1.652;2023-10-09T08:08:55;12.05;;;7.03;;
22230;SDS011;11284;48.086;-1.652;2023-10-09T08:11:28;12.68;;;7.00;;
22230;SDS011;11284;48.086;-1.652;2023-10-09T08:14:10;12.32;;;6.80;;
22230;SDS011;11284;48.086;-1.652;2023-10-09T08:16:55;13.55;;;7.20;;
22230;SDS011;11284;48.086;-1.652;2023-10-09T08:19:39;16.65;;;7.88;;
22230;SDS011;11284;48.086;-1.652;2023-10-09T08:22:27;14.70;;;7.63;;
22230;SDS011;11284;48.086;-1.652;2023-10-09T08:24:53;17.70;;;8.05;;
22230;SDS011;11284;48.086;-1.652;2023-10-09T08:27:29;17.33;;;8.00;;
22230;SDS011;11284;48.086;-1.652;2023-10-09T08:29:58;16.50;;;9.00;;
22230;SDS011;11284;48.086;-1.652;2023-10-09T08:32:45;12.80;;;7.13;;
22230;SDS011;11284;48.086;-1.652;2023-10-09T08:35:28;16.58;;;8.55;;
22230;SDS011;11284;48.086;-1.652;2023-10-09T08:37:57;16.42;;;8.45;;
22230;SDS011;11284;48.086;-1.652;2023-10-09T08:40:36;14.50;;;8.85;;
22230;SDS011;11284;48.086;-1.652;2023-10-09T08:43:13;17.90;;;8.57;;
22230;SDS011;11284;48.086;-1.652;2023-10-09T08:45:42;20.30;;;9.43;;
22230;SDS011;11284;48.086;-1.652;2023-10-09T08:48:10;16.88;;;9.73;;
22230;SDS011;11284;48.086;-1.652;2023-10-09T08:50:52;16.38;;;8.90;;
22230;SDS011;11284;48.086;-1.652;2023-10-09T08:53:19;15.52;;;9.00;;
22230;SDS011;11284;48.086;-1.652;2023-10-09T08:55:45;17.77;;;9.65;;
22230;SDS011;11284;48.086;-1.652;2023-10-09T08:58:12;19.17;;;10.43;;
22230;SDS011;11284;48.086;-1.652;2023-10-09T09:00:50;17.23;;;9.90;;
22230;SDS011;11284;48.086;-1.652;2023-10-09T09:03:17;20.70;;;9.70;;
22230;SDS011;11284;48.086;-1.652;2023-10-09T09:05:47;17.60;;;9.70;;
22230;SDS011;11284;48.086;-1.652;2023-10-09T09:08:23;19.00;;;10.70;;
22230;SDS011;11284;48.086;-1.652;2023-10-09T09:11:11;20.83;;;9.93;;
22230;SDS011;11284;48.086;-1.652;2023-10-09T09:16:24;21.23;;;11.82;;
22230;SDS011;11284;48.086;-1.652;2023-10-09T09:21:28;21.55;;;11.30;;
22230;SDS011;11284;48.086;-1.652;2023-10-09T09:23:58;23.40;;;12.65;;
22230;SDS011;11284;48.086;-1.652;2023-10-09T09:26:36;23.35;;;14.38;;
22230;SDS011;11284;48.086;-1.652;2023-10-09T09:29:05;23.42;;;13.43;;
22230;SDS011;11284;48.086;-1.652;2023-10-09T09:31:32;19.85;;;12.30;;
22230;SDS011;11284;48.086;-1.652;2023-10-09T09:34:07;20.67;;;12.40;;
22230;SDS011;11284;48.086;-1.652;2023-10-09T09:39:23;24.65;;;11.98;;
22230;SDS011;11284;48.086;-1.652;2023-10-09T09:41:57;18.73;;;11.45;;
22230;SDS011;11284;48.086;-1.652;2023-10-09T09:44:29;22.67;;;12.05;;
22230;SDS011;11284;48.086;-1.652;2023-10-09T09:46:59;21.08;;;12.50;;
22230;SDS011;11284;48.086;-1.652;2023-10-09T09:49:26;19.33;;;12.15;;
22230;SDS011;11284;48.086;-1.652;2023-10-09T09:51:58;23.42;;;12.27;;
22230;SDS011;11284;48.086;-1.652;2023-10-09T09:54:24;21.48;;;11.90;;
22230;SDS011;11284;48.086;-1.652;2023-10-09T09:56:50;24.45;;;11.88;;
22230;SDS011;11284;48.086;-1.652;2023-10-09T09:59:19;19.92;;;11.10;;
22230;SDS011;11284;48.086;-1.652;2023-10-09T10:01:52;19.73;;;11.13;;
22230;SDS011;11284;48.086;-1.652;2023-10-09T10:04:22;22.38;;;10.98;;
22230;SDS011;11284;48.086;-1.652;2023-10-09T10:06:49;21.15;;;11.40;;
22230;SDS011;11284;48.086;-1.652;2023-10-09T10:12:04;20.80;;;9.85;;
22230;SDS011;11284;48.086;-1.652;2023-10-09T10:17:24;18.83;;;10.05;;
22230;SDS011;11284;48.086;-1.652;2023-10-09T10:22:39;17.63;;;8.65;;
22230;SDS011;11284;48.086;-1.652;2023-10-09T10:25:31;21.27;;;8.63;;
22230;SDS011;11284;48.086;-1.652;2023-10-09T10:28:31;15.98;;;6.90;;
22230;SDS011;11284;48.086;-1.652;2023-10-09T10:31:09;14.77;;;7.40;;
22230;SDS011;11284;48.086;-1.652;2023-10-09T10:34:18;19.83;;;6.90;;
22230;SDS011;11284;48.086;-1.652;2023-10-09T10:36:25;16.48;;;7.22;;
22230;SDS011;11284;48.086;-1.652;2023-10-09T10:39:08;16.05;;;7.10;;
22230;SDS011;11284;48.086;-1.652;2023-10-09T10:41:55;22.08;;;8.90;;
22230;SDS011;11284;48.086;-1.652;2023-10-09T10:44:24;11.07;;;6.30;;
22230;SDS011;11284;48.086;-1.652;2023-10-09T10:47:06;15.98;;;7.47;;
22230;SDS011;11284;48.086;-1.652;2023-10-09T10:49:49;12.60;;;6.72;;
22230;SDS011;11284;48.086;-1.652;2023-10-09T10:52:25;20.65;;;8.10;;
22230;SDS011;11284;48.086;-1.652;2023-10-09T10:55:10;14.45;;;7.53;;
22230;SDS011;11284;48.086;-1.652;2023-10-09T10:57:54;18.23;;;9.13;;
22230;SDS011;11284;48.086;-1.652;2023-10-09T11:00:21;13.88;;;7.20;;
22230;SDS011;11284;48.086;-1.652;2023-10-09T11:03:06;11.18;;;6.15;;
22230;SDS011;11284;48.086;-1.652;2023-10-09T11:05:41;13.90;;;7.28;;
22230;SDS011;11284;48.086;-1.652;2023-10-09T11:08:10;14.27;;;7.45;;
22230;SDS011;11284;48.086;-1.652;2023-10-09T11:10:38;13.32;;;6.70;;
22230;SDS011;11284;48.086;-1.652;2023-10-09T11:13:24;14.85;;;6.32;;
22230;SDS011;11284;48.086;-1.652;2023-10-09T11:15:55;13.55;;;6.85;;
22230;SDS011;11284;48.086;-1.652;2023-10-09T11:18:42;14.55;;;6.50;;
22230;SDS011;11284;48.086;-1.652;2023-10-09T11:21:12;14.63;;;7.78;;
22230;SDS011;11284;48.086;-1.652;2023-10-09T11:23:39;16.10;;;9.68;;
22230;SDS011;11284;48.086;-1.652;2023-10-09T11:26:22;12.18;;;6.45;;
22230;SDS011;11284;48.086;-1.652;2023-10-09T11:29:05;11.13;;;5.70;;
22230;SDS011;11284;48.086;-1.652;2023-10-09T11:32:02;10.30;;;5.60;;
22230;SDS011;11284;48.086;-1.652;2023-10-09T11:34:34;11.45;;;5.32;;
22230;SDS011;11284;48.086;-1.652;2023-10-09T11:37:02;16.27;;;7.97;;
22230;SDS011;11284;48.086;-1.652;2023-10-09T11:39:31;11.25;;;5.97;;
22230;SDS011;11284;48.086;-1.652;2023-10-09T11:42:08;13.80;;;6.85;;
22230;SDS011;11284;48.086;-1.652;2023-10-09T11:44:37;13.07;;;6.05;;
22230;SDS011;11284;48.086;-1.652;2023-10-09T11:47:04;10.90;;;4.90;;
22230;SDS011;11284;48.086;-1.652;2023-10-09T11:49:55;51.53;;;39.35;;
22230;SDS011;11284;48.086;-1.652;2023-10-09T11:52:36;15.65;;;10.05;;
22230;SDS011;11284;48.086;-1.652;2023-10-09T11:55:21;13.32;;;5.78;;
22230;SDS011;11284;48.086;-1.652;2023-10-09T11:57:50;11.43;;;5.25;;
22230;SDS011;11284;48.086;-1.652;2023-10-09T12:00:16;14.27;;;7.30;;
22230;SDS011;11284;48.086;-1.652;2023-10-09T12:02:55;10.70;;;5.22;;
22230;SDS011;11284;48.086;-1.652;2023-10-09T12:05:21;11.27;;;5.65;;
22230;SDS011;11284;48.086;-1.652;2023-10-09T12:07:48;9.60;;;5.80;;
22230;SDS011;11284;48.086;-1.652;2023-10-09T12:10:19;11.73;;;5.57;;
22230;SDS011;11284;48.086;-1.652;2023-10-09T12:12:50;11.27;;;4.53;;
22230;SDS011;11284;48.086;-1.652;2023-10-09T12:15:16;12.02;;;5.22;;
22230;SDS011;11284;48.086;-1.652;2023-10-09T12:17:46;9.88;;;5.03;;
22230;SDS011;11284;48.086;-1.652;2023-10-09T12:20:15;13.65;;;5.50;;
22230;SDS011;11284;48.086;-1.652;2023-10-09T12:23:01;17.08;;;10.25;;
22230;SDS011;11284;48.086;-1.652;2023-10-09T12:25:30;12.60;;;5.77;;
22230;SDS011;11284;48.086;-1.652;2023-10-09T12:27:57;11.07;;;4.38;;
22230;SDS011;11284;48.086;-1.652;2023-10-09T12:30:25;13.73;;;5.32;;
22230;SDS011;11284;48.086;-1.652;2023-10-09T12:32:54;12.27;;;6.20;;
22230;SDS011;11284;48.086;-1.652;2023-10-09T12:35:22;10.68;;;4.68;;
22230;SDS011;11284;48.086;-1.652;2023-10-09T12:37:49;8.98;;;4.40;;
22230;SDS011;11284;48.086;-1.652;2023-10-09T12:40:16;11.90;;;5.20;;
22230;SDS011;11284;48.086;-1.652;2023-10-09T12:42:49;11.20;;;3.78;;
22230;SDS011;11284;48.086;-1.652;2023-10-09T12:45:15;8.80;;;3.80;;
22230;SDS011;11284;48.086;-1.652;2023-10-09T12:47:43;8.30;;;3.65;;
22230;SDS011;11284;48.086;-1.652;2023-10-09T12:50:09;11.23;;;4.38;;
22230;SDS011;11284;48.086;-1.652;2023-10-09T12:52:38;10.05;;;3.92;;
22230;SDS011;11284;48.086;-1.652;2023-10-09T12:55:04;8.50;;;3.92;;
22230;SDS011;11284;48.086;-1.652;2023-10-09T12:57:32;7.70;;;3.92;;
22230;SDS011;11284;48.086;-1.652;2023-10-09T12:59:58;10.10;;;4.28;;
22230;SDS011;11284;48.086;-1.652;2023-10-09T13:02:24;12.07;;;4.88;;
22230;SDS011;11284;48.086;-1.652;2023-10-09T13:04:56;10.07;;;4.15;;
22230;SDS011;11284;48.086;-1.652;2023-10-09T13:07:22;10.75;;;3.97;;
22230;SDS011;11284;48.086;-1.652;2023-10-09T13:09:48;13.65;;;4.95;;
22230;SDS011;11284;48.086;-1.652;2023-10-09T13:12:36;10.77;;;4.63;;
22230;SDS011;11284;48.086;-1.652;2023-10-09T13:15:09;10.68;;;4.95;;
22230;SDS011;11284;48.086;-1.652;2023-10-09T13:17:35;10.38;;;4.72;;
22230;SDS011;11284;48.086;-1.652;2023-10-09T13:20:04;8.73;;;4.03;;
22230;SDS011;11284;48.086;-1.652;2023-10-09T13:22:44;8.60;;;4.22;;
22230;SDS011;11284;48.086;-1.652;2023-10-09T13:25:12;9.65;;;4.55;;
22230;SDS011;11284;48.086;-1.652;2023-10-09T13:27:42;9.23;;;3.90;;
22230;SDS011;11284;48.086;-1.652;2023-10-09T13:30:15;8.95;;;4.03;;
22230;SDS011;11284;48.086;-1.652;2023-10-09T13:32:47;9.93;;;4.60;;
22230;SDS011;11284;48.086;-1.652;2023-10-09T13:35:14;7.40;;;3.78;;
22230;SDS011;11284;48.086;-1.652;2023-10-09T13:37:42;10.27;;;4.55;;
22230;SDS011;11284;48.086;-1.652;2023-10-09T13:40:09;8.30;;;3.70;;
22230;SDS011;11284;48.086;-1.652;2023-10-09T13:42:37;8.45;;;3.85;;
22230;SDS011;11284;48.086;-1.652;2023-10-09T13:45:03;10.30;;;4.10;;
22230;SDS011;11284;48.086;-1.652;2023-10-09T13:47:32;10.27;;;4.00;;
22230;SDS011;11284;48.086;-1.652;2023-10-09T13:50:01;10.35;;;4.15;;
22230;SDS011;11284;48.086;-1.652;2023-10-09T13:52:28;9.52;;;4.22;;
22230;SDS011;11284;48.086;-1.652;2023-10-09T13:54:55;11.25;;;4.70;;
22230;SDS011;11284;48.086;-1.652;2023-10-09T13:57:23;10.75;;;4.60;;
22230;SDS011;11284;48.086;-1.652;2023-10-09T13:59:56;13.00;;;4.50;;
22230;SDS011;11284;48.086;-1.652;2023-10-09T14:02:25;10.48;;;3.90;;
22230;SDS011;11284;48.086;-1.652;2023-10-09T14:04:53;10.27;;;4.50;;
22230;SDS011;11284;48.086;-1.652;2023-10-09T14:07:22;9.45;;;4.28;;
22230;SDS011;11284;48.086;-1.652;2023-10-09T14:09:48;10.25;;;4.30;;
22230;SDS011;11284;48.086;-1.652;2023-10-09T14:12:20;10.68;;;4.18;;
22230;SDS011;11284;48.086;-1.652;2023-10-09T14:14:47;12.60;;;4.20;;
22230;SDS011;11284;48.086;-1.652;2023-10-09T14:17:14;12.95;;;4.85;;
22230;SDS011;11284;48.086;-1.652;2023-10-09T14:19:43;12.15;;;4.68;;
22230;SDS011;11284;48.086;-1.652;2023-10-09T14:22:13;8.45;;;4.28;;
22230;SDS011;11284;48.086;-1.652;2023-10-09T14:24:41;10.43;;;4.25;;
22230;SDS011;11284;48.086;-1.652;2023-10-09T14:27:10;10.77;;;3.70;;
22230;SDS011;11284;48.086;-1.652;2023-10-09T14:29:42;10.75;;;3.97;;
22230;SDS011;11284;48.086;-1.652;2023-10-09T14:32:09;8.45;;;4.57;;
22230;SDS011;11284;48.086;-1.652;2023-10-09T14:34:38;8.10;;;4.18;;
22230;SDS011;11284;48.086;-1.652;2023-10-09T14:37:08;10.25;;;4.60;;
22230;SDS011;11284;48.086;-1.652;2023-10-09T14:39:40;10.88;;;4.50;;
22230;SDS011;11284;48.086;-1.652;2023-10-09T14:42:06;11.00;;;4.93;;
22230;SDS011;11284;48.086;-1.652;2023-10-09T14:44:35;8.18;;;4.03;;
22230;SDS011;11284;48.086;-1.652;2023-10-09T14:47:05;8.30;;;3.95;;
22230;SDS011;11284;48.086;-1.652;2023-10-09T14:49:32;8.80;;;4.30;;
22230;SDS011;11284;48.086;-1.652;2023-10-09T14:52:08;9.25;;;4.57;;
22230;SDS011;11284;48.086;-1.652;2023-10-09T14:54:37;8.52;;;3.85;;
22230;SDS011;11284;48.086;-1.652;2023-10-09T14:57:04;9.70;;;4.15;;
22230;SDS011;11284;48.086;-1.652;2023-10-09T14:59:36;8.53;;;4.20;;
22230;SDS011;11284;48.086;-1.652;2023-10-09T15:02:03;8.38;;;4.13;;
22230;SDS011;11284;48.086;-1.652;2023-10-09T15:04:30;11.07;;;4.68;;
22230;SDS011;11284;48.086;-1.652;2023-10-09T15:06:56;8.88;;;4.90;;
22230;SDS011;11284;48.086;-1.652;2023-10-09T15:09:22;9.82;;;4.75;;
22230;SDS011;11284;48.086;-1.652;2023-10-09T15:11:53;12.40;;;5.18;;
22230;SDS011;11284;48.086;-1.652;2023-10-09T15:14:19;8.57;;;4.22;;
22230;SDS011;11284;48.086;-1.652;2023-10-09T15:16:46;9.68;;;4.20;;